Latest Coastal Weather Observations for Lady Elliot Island

IDQ60701

Issued at 8:31 am EST Sunday 5 July 2015 (issued every 10 minutes, with the page automatically refreshed every 10 minutes)

About coastal observations | Map of coastal stations | Coastal observations for QLD | Marine services | Other Formats
Station Details ID: 039059 Name: LADY ELLIOT ISLAND Lat: -24.11 Lon: 152.72 Height: 3.6 m
Data from the previous 72 hours. | See also: Recent months at Lady Elliot Island
Date/Time
EST
Temp

°C
Wind Pressure Rain
since 9am
mm
Weather Cloud Vis
km
Sea
Height
m
Swell
Dir
 
Speed
knots
Gust
knots
hPa Trend Height
m
Period
s
Dir
05/08:00am 20.2 SE 9 13 1021.3 - 0.0 - - - - - - -
05/07:30am 20.2 SE 9 13 1021.0 - 0.0 - - - - - - -
05/07:00am 20.3 SE 9 12 1020.8 - 0.0 - - - - - - -
05/06:30am 20.1 SE 11 13 1020.5 - 0.0 - - - - - - -
05/06:00am 19.7 E 9 12 1020.1 - 0.0 - - - - - - -
05/05:30am 20.0 ESE 8 11 1019.8 - 0.0 - - - - - - -
05/05:00am 19.8 ESE 8 12 1019.5 - 0.0 - - - - - - -
05/04:30am 19.5 ESE 6 8 1019.3 - 0.0 - - - - - - -
05/04:00am 19.3 E 10 13 1019.4 - 0.0 - - - - - - -
05/03:30am 19.8 ESE 13 16 1019.5 - 0.0 - - - - - - -
05/03:00am 20.0 E 12 15 1019.7 - 0.0 - - - - - - -
05/02:30am 20.3 E 10 13 1019.9 - 0.0 - - - - - - -
05/02:00am 19.8 SE 7 9 1020.2 - 0.0 - - - - - - -
05/01:30am 20.1 ESE 12 17 1020.4 - 0.0 - - - - - - -
05/01:00am 19.9 SE 10 14 1020.7 - 0.0 - - - - - - -
05/12:30am 19.9 ESE 11 15 1020.9 - 0.0 - - - - - - -
05/12:00am 20.0 ESE 11 16 1021.1 - 0.0 - - - - - - -
 
Date/Time
EST
Temp

°C
Wind Pressure Rain
since 9am
mm
Weather Cloud Vis
km
Sea
Height
m
Swell
Dir
 
Speed
knots
Gust
knots
hPa Trend Height
m
Period
s
Dir
04/11:30pm 20.0 E 11 13 1021.4 - 0.0 - - - - - - -
04/11:00pm 20.1 ENE 9 14 1021.6 - 0.0 - - - - - - -
04/10:30pm 20.0 E 11 14 1021.7 - 0.0 - - - - - - -
04/10:00pm 20.1 E 14 17 1021.8 - 0.0 - - - - - - -
04/09:30pm 20.0 SE 11 15 1021.7 - 0.0 - - - - - - -
04/09:00pm 20.0 SE 13 16 1021.7 - 0.0 - - - - - - -
04/08:30pm 19.7 SE 9 12 1021.5 - 0.0 - - - - - - -
04/08:00pm 19.9 SE 12 18 1021.3 - 0.0 - - - - - - -
04/07:30pm 19.6 SE 13 18 1021.1 - 0.0 - - - - - - -
04/07:00pm 20.2 SE 10 13 1020.7 - 0.0 - - - - - - -
04/06:30pm 20.1 SE 13 18 1020.6 - 0.0 - - - - - - -
04/06:00pm 20.0 ESE 13 16 1020.3 - 0.0 - - - - - - -
04/05:30pm 20.1 SE 11 15 1020.0 - 0.0 - - - - - - -
04/05:00pm 20.0 SE 11 15 1019.8 - 0.0 - - - - - - -
04/04:30pm 19.9 ESE 13 16 1019.5 - 0.0 - - - - - - -
04/03:30pm 20.1 SSE 9 15 1019.0 - 0.0 - - - - - - -
04/03:00pm 20.2 S 10 15 1018.9 - 0.0 - - - - - - -
04/02:30pm 20.3 S 11 16 1018.8 - 0.0 - - - - - - -
04/02:00pm 20.6 SSE 11 17 1019.1 - 0.0 - - - - - - -
04/01:30pm 20.5 SSE 13 18 1019.0 - 0.0 - - - - - - -
04/01:00pm 20.1 S 11 15 1019.5 - 0.0 - - - - - - -
04/12:30pm 20.5 SE 13 17 1019.9 - 0.0 - - - - - - -
04/12:00pm 20.6 SSE 10 13 1020.3 - 0.0 - - - - - - -
04/11:00am 20.0 SSE 11 16 1021.1 - 0.0 - - - - - - -
04/10:30am 19.4 SSE 14 18 1021.5 - 0.0 - - - - - - -
04/10:00am 19.4 SSE 11 15 1021.6 - 0.0 - - - - - - -
04/09:30am 19.1 S 13 21 1021.6 - 0.0 - - - - - - -
04/09:00am 19.6 S 13 20 1021.7 - 9.8 - - - - - - -
04/08:30am 19.4 SSE 13 21 1021.6 - 9.8 - - - - - - -
04/08:00am 19.2 S 13 20 1021.5 - 9.8 - - - - - - -
04/07:30am 18.9 SSE 14 18 1021.1 - 9.8 - - - - - - -
04/07:00am 18.9 SSE 12 19 1020.9 - 9.8 - - - - - - -
04/06:30am 18.6 SSE 15 22 1020.5 - 9.8 - - - - - - -
04/05:00am 18.3 S 11 16 1019.8 - 9.8 - - - - - - -
04/04:30am 17.6 SSE 11 16 1020.1 - 9.8 - - - - - - -
04/04:00am 17.6 SE 11 15 1020.0 - 9.4 - - - - - - -
04/03:34am 17.9 SE 15 27 1020.2 - 9.2 - - - - - - -
04/02:00am 17.7 S 13 18 1020.4 - 7.8 - - - - - - -
04/01:00am 17.3 SE 12 16 1020.7 - 7.4 - - - - - - -
04/12:00am 18.8 SSE 14 19 1020.9 - 0.0 - - - - - - -
 
Date/Time
EST
Temp

°C
Wind Pressure Rain
since 9am
mm
Weather Cloud Vis
km
Sea
Height
m
Swell
Dir
 
Speed
knots
Gust
knots
hPa Trend Height
m
Period
s
Dir
03/11:30pm 19.0 S 13 19 1021.0 - 0.0 - - - - - - -
03/11:00pm 18.9 S 12 19 1021.1 - 0.0 - - - - - - -
03/10:30pm 19.0 S 13 19 1021.4 - 0.0 - - - - - - -
03/10:00pm 18.8 S 13 19 1021.5 - 0.0 - - - - - - -
03/09:30pm 18.7 S 14 22 1021.5 - 0.0 - - - - - - -
03/09:00pm 18.7 S 13 21 1021.6 - 0.0 - - - - - - -
03/08:30pm 19.0 SSE 15 23 1021.4 - 0.0 - - - - - - -
03/08:00pm 19.2 SSE 16 26 1021.3 - 0.0 - - - - - - -
03/07:57pm 19.0 SSE 16 26 1021.3 - 0.0 - - - - - - -
03/07:30pm 18.8 SSE 16 24 1021.1 - 0.0 - - - - - - -
03/07:00pm 19.0 SSE 17 23 1020.8 - 0.0 - - - - - - -
03/06:37pm 19.1 S 15 26 1020.8 - 0.0 - - - - - - -
03/06:30pm 19.1 SSE 16 24 1020.7 - 0.0 - - - - - - -
03/06:19pm 19.1 SSE 16 26 1020.5 - 0.0 - - - - - - -
03/06:00pm 19.1 SSE 16 23 1020.3 - 0.0 - - - - - - -
03/05:30pm 19.2 SSE 16 23 1019.9 - 0.0 - - - - - - -
03/05:00pm 19.3 SSE 16 24 1019.5 - 0.0 - - - - - - -
03/04:30pm 19.2 SSE 17 24 1019.0 - 0.0 - - - - - - -
03/04:00pm 19.2 SSE 17 24 1018.6 - 0.0 - - - - - - -
03/03:38pm 19.3 SSE 15 25 1018.6 - 0.0 - - - - - - -
03/03:30pm 19.4 SSE 16 22 1018.6 - 0.0 - - - - - - -
03/03:11pm 19.3 SSE 15 25 1018.6 - 0.0 - - - - - - -
03/03:00pm 19.4 S 13 21 1018.5 - 0.0 - - - - - - -
03/02:30pm 19.2 S 15 22 1018.5 - 0.0 - - - - - - -
03/02:00pm 18.9 S 14 21 1018.7 - 0.0 - - - - - - -
03/01:30pm 18.7 S 13 20 1019.0 - 0.0 - - - - - - -
03/12:00pm 18.2 S 13 22 1019.7 - 0.0 - - - - - - -
03/11:30am 17.1 S 14 18 1020.3 - 0.0 - - - - - - -
03/11:00am 16.7 S 14 20 1020.5 - 0.0 - - - - - - -
03/10:00am 16.6 S 13 21 1020.7 - 0.0 - - - - - - -
03/09:30am 16.8 S 13 22 1020.8 - 0.0 - - - - - - -
03/09:00am 16.1 S 13 21 1020.6 - 0.0 - - - - - - -
03/08:30am 15.4 S 13 19 1020.7 - 0.0 - - - - - - -
03/08:00am 14.6 S 15 22 1020.3 - 0.0 - - - - - - -
03/07:30am 13.9 S 16 23 1020.0 - 0.0 - - - - - - -
03/07:00am 13.8 S 16 23 1019.6 - 0.0 - - - - - - -
03/06:32am 13.6 S 16 26 1019.5 - 0.0 - - - - - - -
03/06:30am 13.8 S 17 26 1019.4 - 0.0 - - - - - - -
03/06:20am 13.7 S 16 26 1019.3 - 0.0 - - - - - - -
03/06:00am 13.6 S 17 26 1019.0 - 0.0 - - - - - - -
03/05:30am 13.4 SSW 16 24 1018.8 - 0.0 - - - - - - -
03/05:00am 13.5 SSW 15 24 1018.6 - 0.0 - - - - - - -
03/04:36am 13.6 SSW 15 25 1018.4 - 0.0 - - - - - - -
03/04:30am 13.5 SSW 16 25 1018.5 - 0.0 - - - - - - -
03/04:00am 13.8 SSW 16 23 1018.5 - 0.0 - - - - - - -
03/03:30am 14.0 SSW 17 26 1018.7 - 0.0 - - - - - - -
03/03:09am 14.0 SSW 15 25 1018.8 - 0.0 - - - - - - -
03/03:00am 14.3 SSW 16 24 1018.9 - 0.0 - - - - - - -
03/02:30am 14.7 SSW 16 26 1019.0 - 0.0 - - - - - - -
03/02:29am 14.7 SSW 16 26 1019.1 - 0.0 - - - - - - -
03/02:00am 15.1 SSW 14 22 1019.4 - 0.0 - - - - - - -
03/01:30am 15.6 SSW 15 25 1019.7 - 0.0 - - - - - - -
03/01:22am 15.7 SSW 15 25 1019.7 - 0.0 - - - - - - -
03/01:00am 16.1 SSW 15 24 1019.8 - 0.0 - - - - - - -
03/12:30am 16.5 SSW 14 20 1019.8 - 0.0 - - - - - - -
03/12:00am 17.0 SSW 16 24 1019.9 - 0.0 - - - - - - -
 
Date/Time
EST
Temp

°C
Wind Pressure Rain
since 9am
mm
Weather Cloud Vis
km
Sea
Height
m
Swell
Dir
 
Speed
knots
Gust
knots
hPa Trend Height
m
Period
s
Dir
02/11:30pm 17.1 SSW 16 23 1020.1 - 0.0 - - - - - - -
02/11:00pm 17.3 SSW 12 19 1020.5 - 0.0 - - - - - - -
02/10:30pm 17.7 SSW 14 21 1020.4 - 0.0 - - - - - - -
02/10:00pm 18.0 SSW 13 21 1020.3 - 0.0 - - - - - - -
02/09:30pm 18.2 SSW 14 20 1020.5 - 0.0 - - - - - - -
02/09:00pm 18.5 S 13 22 1020.4 - 0.0 - - - - - - -
02/08:30pm 18.6 SSW 13 19 1020.2 - 0.0 - - - - - - -
02/08:00pm 18.7 SSW 14 21 1020.1 - 0.0 - - - - - - -
02/07:30pm 19.2 SSW 13 20 1019.7 - 0.0 - - - - - - -
02/07:00pm 19.4 S 14 20 1019.7 - 0.0 - - - - - - -
02/06:30pm 19.2 SSW 10 15 1019.3 - 0.0 - - - - - - -
02/06:00pm 19.2 SSW 10 15 1018.9 - 0.0 - - - - - - -
02/05:30pm 19.2 SSW 10 15 1018.6 - 0.0 - - - - - - -
02/05:00pm 19.5 SSW 10 15 1018.5 - 0.0 - - - - - - -
02/03:30pm 20.4 SSW 13 21 1018.4 - 0.0 - - - - - - -
02/03:00pm 20.8 SSW 13 21 1018.4 - 0.0 - - - - - - -
02/02:30pm 20.9 SSW 13 20 1018.5 - 0.0 - - - - - - -
02/02:00pm 20.8 SSW 12 20 1018.6 - 0.0 - - - - - - -
02/01:30pm 20.9 SSW 13 19 1018.7 - 0.0 - - - - - - -
02/01:00pm 20.5 SSW 14 19 1019.1 - 0.0 - - - - - - -
02/12:30pm 20.4 SSW 13 19 1019.8 - 0.0 - - - - - - -
02/12:00pm 20.1 SSW 13 19 1020.5 - 0.0 - - - - - - -
02/11:30am 20.4 S 16 22 1021.0 - 0.0 - - - - - - -
02/11:00am 20.0 S 14 19 1021.5 - 0.0 - - - - - - -
02/10:30am 19.8 S 15 19 1021.9 - 0.0 - - - - - - -
02/10:00am 19.6 S 15 21 1022.2 - 0.0 - - - - - - -
02/09:30am 19.4 S 15 20 1022.1 - 0.0 - - - - - - -
02/09:00am 18.9 S 13 18 1022.1 - 0.0 - - - - - - -

Other Formats:

Comma delimited format used in spreadsheet applications
http://www.bom.gov.au/fwo/IDQ60701/IDQ60701.94388.axf

JavaScript Object Notation format (JSON) in row-major order
http://www.bom.gov.au/fwo/IDQ60701/IDQ60701.94388.json